createdAt,value
2022-09-28T00:01:11.430Z,1.50
2022-09-28T00:03:39.609Z,1.50
2022-09-28T00:06:09.940Z,1.60
2022-09-28T00:08:38.318Z,1.60
2022-09-28T00:11:11.210Z,1.60
2022-09-28T00:13:40.435Z,1.80
2022-09-28T00:16:11.456Z,1.40
2022-09-28T00:18:39.711Z,1.67
2022-09-28T00:21:10.150Z,2.03
2022-09-28T00:24:00.007Z,0.70
2022-09-28T00:26:30.802Z,1.67
2022-09-28T00:29:00.806Z,1.33
2022-09-28T00:31:31.807Z,1.30
2022-09-28T00:34:00.545Z,0.80
2022-09-28T00:36:29.915Z,1.60
2022-09-28T00:38:58.436Z,0.70
2022-09-28T00:41:29.712Z,1.00
2022-09-28T00:44:33.354Z,1.53
2022-09-28T00:47:03.674Z,1.83
2022-09-28T00:49:35.229Z,3.40
2022-09-28T00:52:05.172Z,1.73
2022-09-28T00:54:33.514Z,2.20
2022-09-28T00:57:04.322Z,1.60
2022-09-28T00:59:33.059Z,1.53
2022-09-28T01:02:01.840Z,1.70
2022-09-28T01:04:31.437Z,1.60
2022-09-28T01:07:00.521Z,1.27
2022-09-28T01:09:29.245Z,1.80
2022-09-28T01:11:57.483Z,1.70
2022-09-28T01:14:27.638Z,0.80
2022-09-28T01:17:01.990Z,1.73
2022-09-28T01:20:06.065Z,1.23
2022-09-28T01:23:23.467Z,1.40
2022-09-28T01:25:54.987Z,1.20
2022-09-28T01:28:26.930Z,1.70
2022-09-28T01:31:03.399Z,1.70
2022-09-28T01:33:36.619Z,1.60
2022-09-28T01:36:09.007Z,1.57
2022-09-28T01:38:40.774Z,1.83
2022-09-28T01:41:10.746Z,2.07
2022-09-28T01:43:42.158Z,1.60
2022-09-28T01:46:14.154Z,1.40
2022-09-28T01:48:45.910Z,1.50
2022-09-28T01:51:18.551Z,1.50
2022-09-28T01:53:50.409Z,1.87
2022-09-28T01:56:24.739Z,1.40
2022-09-28T01:58:56.557Z,1.90
2022-09-28T02:01:29.566Z,1.50
2022-09-28T02:04:01.693Z,2.07
2022-09-28T02:06:33.311Z,1.93
2022-09-28T02:09:04.914Z,2.37
2022-09-28T02:11:46.675Z,1.83
2022-09-28T02:14:17.565Z,2.93
2022-09-28T02:16:48.786Z,1.93
2022-09-28T02:19:19.704Z,1.80
2022-09-28T02:21:55.646Z,1.70
2022-09-28T02:24:26.289Z,1.60
2022-09-28T02:26:56.273Z,1.60
2022-09-28T02:29:26.256Z,2.33
2022-09-28T02:31:54.766Z,1.50
2022-09-28T02:34:23.042Z,1.60
2022-09-28T02:36:51.489Z,2.30
2022-09-28T02:39:20.157Z,2.00
2022-09-28T02:41:55.979Z,2.63
2022-09-28T02:45:01.986Z,2.00
2022-09-28T02:47:39.780Z,2.07
2022-09-28T02:50:14.193Z,2.00
2022-09-28T02:52:57.771Z,1.70
2022-09-28T02:55:35.012Z,2.10
2022-09-28T02:58:15.292Z,1.63
2022-09-28T03:00:47.478Z,1.90
2022-09-28T03:03:19.992Z,1.80
2022-09-28T03:05:54.566Z,2.07
2022-09-28T03:08:25.776Z,1.80
2022-09-28T03:10:57.893Z,2.47
2022-09-28T03:13:26.546Z,2.17
2022-09-28T03:16:08.652Z,1.63
2022-09-28T03:18:37.136Z,1.60
2022-09-28T03:21:06.201Z,2.10
2022-09-28T03:23:34.711Z,2.17
2022-09-28T03:26:03.476Z,2.53
2022-09-28T03:28:32.015Z,2.37
2022-09-28T03:31:01.769Z,2.53
2022-09-28T03:33:30.250Z,2.37
2022-09-28T03:35:58.489Z,2.20
2022-09-28T03:38:26.749Z,2.00
2022-09-28T03:40:56.347Z,2.10
2022-09-28T03:43:25.430Z,1.90
2022-09-28T03:45:56.723Z,2.10
2022-09-28T03:48:32.109Z,2.37
2022-09-28T03:51:02.309Z,2.00
2022-09-28T03:53:30.998Z,2.00
2022-09-28T03:56:05.036Z,2.17
2022-09-28T03:58:34.109Z,1.67
2022-09-28T04:01:03.873Z,2.10
2022-09-28T04:03:34.020Z,2.57
2022-09-28T04:06:02.588Z,1.87
2022-09-28T04:08:30.969Z,1.97
2022-09-28T04:11:00.568Z,2.47
2022-09-28T04:13:29.904Z,2.43
2022-09-28T04:16:02.247Z,1.70
2022-09-28T04:18:35.323Z,2.20
2022-09-28T04:21:07.886Z,2.67
2022-09-28T04:23:41.629Z,2.47
2022-09-28T04:26:16.733Z,2.30
2022-09-28T04:29:06.354Z,2.20
2022-09-28T04:31:39.482Z,2.67
2022-09-28T04:34:09.593Z,2.50
2022-09-28T04:36:37.933Z,2.20
2022-09-28T04:39:06.555Z,1.93
2022-09-28T04:41:35.249Z,1.63
2022-09-28T04:44:03.673Z,2.20
2022-09-28T04:46:32.133Z,1.80
2022-09-28T04:49:25.574Z,2.30
2022-09-28T04:51:55.371Z,2.20
2022-09-28T04:54:23.592Z,2.23
2022-09-28T04:56:52.993Z,2.53
2022-09-28T04:59:21.403Z,2.47
2022-09-28T05:01:50.420Z,2.40
2022-09-28T05:04:38.491Z,2.50
2022-09-28T05:07:26.930Z,2.10
2022-09-28T05:09:56.325Z,2.20
2022-09-28T05:12:24.693Z,2.90
2022-09-28T05:14:52.948Z,4.83
2022-09-28T05:17:21.274Z,5.87
2022-09-28T05:20:17.025Z,8.30
2022-09-28T05:22:45.765Z,8.97
2022-09-28T05:25:14.465Z,9.00
2022-09-28T05:27:57.091Z,10.17
2022-09-28T05:30:38.317Z,10.20
2022-09-28T05:33:25.102Z,11.10
2022-09-28T05:36:21.403Z,11.23
2022-09-28T05:38:49.734Z,11.13
2022-09-28T05:41:18.015Z,9.93
2022-09-28T05:43:46.811Z,10.13
2022-09-28T05:46:15.697Z,10.77
2022-09-28T05:48:44.022Z,10.07
2022-09-28T05:51:12.399Z,9.30
2022-09-28T05:53:42.017Z,8.80
2022-09-28T05:56:10.779Z,7.47
2022-09-28T05:58:43.334Z,7.13
2022-09-28T06:01:12.653Z,5.70
2022-09-28T06:03:41.024Z,5.60
2022-09-28T06:06:09.297Z,3.70
2022-09-28T06:08:38.828Z,3.50
2022-09-28T06:11:27.892Z,3.27
2022-09-28T06:13:58.467Z,4.13
2022-09-28T06:16:29.928Z,3.50
2022-09-28T06:18:58.323Z,4.00
2022-09-28T06:21:58.350Z,2.53
2022-09-28T06:24:27.698Z,3.53
2022-09-28T06:26:57.494Z,3.17
2022-09-28T06:29:27.111Z,3.60
2022-09-28T06:31:56.243Z,3.33
2022-09-28T06:34:24.927Z,3.23
2022-09-28T06:36:53.825Z,3.63
2022-09-28T06:39:22.404Z,3.50
2022-09-28T06:41:52.632Z,3.20
2022-09-28T06:44:25.235Z,3.57
2022-09-28T06:47:19.763Z,3.80
2022-09-28T06:50:17.278Z,2.70
2022-09-28T06:53:00.558Z,2.93
2022-09-28T06:55:49.247Z,3.03
2022-09-28T06:58:20.869Z,2.60
2022-09-28T07:00:52.457Z,2.30
2022-09-28T07:03:22.477Z,2.80
2022-09-28T07:06:04.801Z,2.53
2022-09-28T07:09:22.894Z,2.53
2022-09-28T07:12:14.463Z,3.13
2022-09-28T07:14:56.423Z,2.63
2022-09-28T07:17:28.551Z,2.40
2022-09-28T07:20:10.705Z,2.13
2022-09-28T07:22:45.420Z,2.50
2022-09-28T07:25:19.527Z,2.50
2022-09-28T07:27:59.738Z,2.60
2022-09-28T07:31:03.746Z,1.80
2022-09-28T07:34:03.164Z,2.03
2022-09-28T07:36:39.230Z,2.13
2022-09-28T07:39:07.784Z,2.03
2022-09-28T07:41:36.334Z,2.37
2022-09-28T07:44:07.691Z,1.77
2022-09-28T07:46:38.162Z,2.90
2022-09-28T07:49:19.436Z,2.17
2022-09-28T07:52:10.838Z,2.60
2022-09-28T07:54:52.340Z,2.40
2022-09-28T07:57:56.320Z,2.57
2022-09-28T08:01:01.230Z,2.23
2022-09-28T08:03:30.477Z,2.40
2022-09-28T08:06:01.188Z,1.97
2022-09-28T08:08:30.267Z,2.10
2022-09-28T08:10:59.863Z,2.90
2022-09-28T08:14:06.719Z,2.60
2022-09-28T08:16:55.527Z,3.37
2022-09-28T08:19:51.185Z,2.50
2022-09-28T08:22:21.878Z,4.10
2022-09-28T08:24:52.863Z,3.07
2022-09-28T08:27:21.316Z,3.13
2022-09-28T08:29:49.832Z,3.47
2022-09-28T08:32:37.247Z,3.60
2022-09-28T08:35:26.493Z,3.60
2022-09-28T08:38:19.438Z,3.10
2022-09-28T08:40:58.867Z,2.83
2022-09-28T08:44:04.564Z,3.73
2022-09-28T08:46:48.266Z,4.50
2022-09-28T08:49:38.555Z,4.87
2022-09-28T08:52:19.227Z,4.17
2022-09-28T08:55:10.206Z,3.83
2022-09-28T08:57:46.216Z,4.70
2022-09-28T09:00:22.629Z,4.43
2022-09-28T09:02:51.130Z,4.57
2022-09-28T09:05:22.696Z,3.77
2022-09-28T09:08:13.343Z,5.93
2022-09-28T09:10:51.110Z,5.70
2022-09-28T09:13:58.210Z,6.50
2022-09-28T09:16:33.785Z,5.93
2022-09-28T09:19:36.491Z,5.27
2022-09-28T09:22:35.168Z,4.80
2022-09-28T09:25:14.878Z,5.43
2022-09-28T09:27:54.932Z,4.60
2022-09-28T09:30:29.870Z,3.77
2022-09-28T09:33:08.167Z,4.10
2022-09-28T09:36:03.918Z,4.20
2022-09-28T09:39:11.388Z,3.37
2022-09-28T09:42:12.974Z,4.30
2022-09-28T09:45:24.002Z,2.97
2022-09-28T09:48:14.023Z,3.57
2022-09-28T09:50:48.941Z,3.30
2022-09-28T09:53:22.372Z,3.20
2022-09-28T09:55:54.973Z,3.43
2022-09-28T09:58:33.099Z,3.10
2022-09-28T10:01:14.235Z,3.20
2022-09-28T10:04:15.727Z,2.83
2022-09-28T10:06:45.440Z,3.50
2022-09-28T10:09:18.589Z,3.07
2022-09-28T10:11:52.326Z,3.07
2022-09-28T10:14:22.660Z,2.90
2022-09-28T10:17:00.540Z,2.73
2022-09-28T10:20:05.154Z,2.90
2022-09-28T10:22:33.611Z,2.77
2022-09-28T10:25:13.122Z,3.07
2022-09-28T10:27:46.053Z,2.97
2022-09-28T10:30:18.511Z,3.17
2022-09-28T10:32:51.434Z,3.00
2022-09-28T10:35:25.496Z,3.53
2022-09-28T10:38:08.045Z,2.80
2022-09-28T10:40:47.062Z,2.40
2022-09-28T10:43:23.663Z,2.50
2022-09-28T10:46:02.475Z,2.60
2022-09-28T10:48:40.381Z,2.40
2022-09-28T10:51:09.801Z,2.53
2022-09-28T10:53:40.333Z,3.00
2022-09-28T10:56:23.949Z,2.40
2022-09-28T10:58:58.536Z,3.00
2022-09-28T11:01:41.561Z,3.10
2022-09-28T11:04:21.884Z,2.47
2022-09-28T11:06:51.574Z,2.63
2022-09-28T11:09:29.930Z,2.70
2022-09-28T11:12:05.166Z,3.20
2022-09-28T11:14:41.877Z,2.93
2022-09-28T11:17:19.715Z,2.60
2022-09-28T11:19:51.481Z,3.60
2022-09-28T11:22:26.253Z,3.53
2022-09-28T11:25:22.025Z,3.23
2022-09-28T11:27:58.751Z,2.80
2022-09-28T11:30:28.994Z,2.83
2022-09-28T11:33:31.571Z,2.87
2022-09-28T11:36:17.213Z,2.50
2022-09-28T11:38:53.788Z,3.20
2022-09-28T11:41:45.659Z,2.43
2022-09-28T11:44:39.535Z,2.80
2022-09-28T11:47:31.085Z,2.73
2022-09-28T11:50:03.424Z,3.50
2022-09-28T11:52:38.733Z,2.47
2022-09-28T11:55:13.265Z,2.40
2022-09-28T11:57:44.754Z,3.40
2022-09-28T12:00:16.827Z,2.97
2022-09-28T12:02:50.622Z,3.10
2022-09-28T12:05:25.173Z,2.53
2022-09-28T12:07:57.842Z,2.83
2022-09-28T12:10:48.744Z,2.50
2022-09-28T12:13:22.841Z,2.17
2022-09-28T12:18:46.180Z,2.90
2022-09-28T12:21:28.926Z,2.37
2022-09-28T12:24:03.897Z,2.60
2022-09-28T12:26:38.009Z,3.00
2022-09-28T12:29:08.591Z,3.10
2022-09-28T12:31:40.675Z,2.97
2022-09-28T12:34:11.267Z,3.40
2022-09-28T12:36:48.714Z,3.00
2022-09-28T12:39:46.812Z,2.37
2022-09-28T12:42:27.994Z,2.97
2022-09-28T12:45:09.916Z,3.10
2022-09-28T12:48:01.167Z,3.10
2022-09-28T12:50:38.804Z,2.93
2022-09-28T12:53:23.618Z,2.40
2022-09-28T12:56:01.431Z,2.77
2022-09-28T12:58:46.027Z,3.60
2022-09-28T13:01:28.112Z,2.77
2022-09-28T13:04:11.434Z,3.50
2022-09-28T13:06:48.749Z,2.70
2022-09-28T13:09:23.245Z,4.00
2022-09-28T13:12:16.925Z,3.07
2022-09-28T13:15:16.647Z,3.03
2022-09-28T13:17:50.729Z,2.43
2022-09-28T13:20:25.298Z,3.20
2022-09-28T13:22:58.990Z,2.60
2022-09-28T13:25:29.099Z,3.03
2022-09-28T13:28:03.076Z,2.53
2022-09-28T13:30:32.261Z,3.03
2022-09-28T13:33:02.723Z,2.33
2022-09-28T13:35:31.186Z,3.17
2022-09-28T13:38:45.784Z,3.00
2022-09-28T13:41:24.988Z,2.93
2022-09-28T13:44:12.080Z,2.93
2022-09-28T13:46:46.423Z,2.70
2022-09-28T13:49:19.408Z,2.67
2022-09-28T13:52:09.405Z,2.93
2022-09-28T13:54:55.758Z,3.50
2022-09-28T13:57:26.201Z,2.83
2022-09-28T14:00:05.809Z,2.70
2022-09-28T14:02:44.491Z,2.70
2022-09-28T14:05:35.178Z,2.60
2022-09-28T14:08:25.699Z,2.40
2022-09-28T14:10:54.898Z,2.13
2022-09-28T14:14:00.664Z,1.83
2022-09-28T14:16:32.350Z,2.33
2022-09-28T14:19:04.728Z,1.63
2022-09-28T14:21:49.169Z,2.00
2022-09-28T14:24:27.443Z,1.70
2022-09-28T14:27:19.291Z,1.80
2022-09-28T14:29:48.481Z,1.87
2022-09-28T14:32:37.474Z,1.57
2022-09-28T14:35:07.821Z,1.93
2022-09-28T14:37:54.805Z,1.50
2022-09-28T14:40:47.140Z,1.87
2022-09-28T14:43:24.553Z,1.90
2022-09-28T14:45:54.632Z,1.60
2022-09-28T14:48:44.386Z,1.77
2022-09-28T14:52:01.119Z,1.77
2022-09-28T14:54:35.503Z,2.47
2022-09-28T14:57:09.522Z,2.23
2022-09-28T14:59:43.619Z,2.40
2022-09-28T15:02:18.390Z,2.13
2022-09-28T15:04:50.455Z,1.90
2022-09-28T15:07:21.519Z,1.43
2022-09-28T15:09:51.466Z,1.50
2022-09-28T15:12:21.990Z,2.07
2022-09-28T15:14:54.333Z,1.77
2022-09-28T15:17:25.346Z,2.10
2022-09-28T15:20:21.224Z,1.90
2022-09-28T15:22:51.583Z,2.00
2022-09-28T15:25:21.339Z,2.17
2022-09-28T15:27:54.230Z,2.33
2022-09-28T15:30:26.348Z,2.73
2022-09-28T15:32:56.931Z,1.87
2022-09-28T15:35:27.315Z,2.10
2022-09-28T15:37:56.626Z,1.97
2022-09-28T15:40:31.571Z,2.20
2022-09-28T15:43:00.128Z,1.60
2022-09-28T15:45:32.638Z,2.30
2022-09-28T15:48:18.988Z,2.20
2022-09-28T15:51:11.927Z,2.30
2022-09-28T15:53:44.591Z,2.43
2022-09-28T15:56:13.136Z,2.13
2022-09-28T15:58:44.636Z,2.50
2022-09-28T16:01:26.920Z,2.13
2022-09-28T16:03:55.324Z,2.50
2022-09-28T16:06:25.037Z,2.50
2022-09-28T16:08:53.836Z,2.83
2022-09-28T16:11:24.305Z,2.73
2022-09-28T16:14:04.543Z,2.70
2022-09-28T16:16:36.638Z,2.77
2022-09-28T16:19:05.302Z,3.47
2022-09-28T16:21:45.087Z,2.50
2022-09-28T16:24:23.891Z,2.67
2022-09-28T16:26:58.527Z,3.20
2022-09-28T16:29:29.700Z,2.67
2022-09-28T16:31:57.927Z,2.50
2022-09-28T16:34:27.394Z,2.10
2022-09-28T16:36:57.054Z,3.30
2022-09-28T16:39:25.498Z,3.43
2022-09-28T16:41:56.131Z,3.10
2022-09-28T16:44:28.534Z,2.60
2022-09-28T16:47:00.741Z,3.50
2022-09-28T16:49:29.132Z,2.77
2022-09-28T16:51:59.638Z,2.90
2022-09-28T16:54:45.098Z,3.43
2022-09-28T16:57:14.856Z,2.73
2022-09-28T16:59:43.187Z,2.83
2022-09-28T17:02:42.038Z,3.00
2022-09-28T17:05:08.048Z,3.27
2022-09-28T17:07:38.114Z,2.60
2022-09-28T17:10:15.550Z,3.20
2022-09-28T17:12:43.923Z,3.00
2022-09-28T17:15:12.339Z,2.80
2022-09-28T17:17:41.123Z,3.20
2022-09-28T17:20:22.485Z,3.67
2022-09-28T17:22:52.490Z,3.17
2022-09-28T17:25:21.688Z,4.07
2022-09-28T17:27:50.572Z,2.50
2022-09-28T17:30:23.595Z,3.00
2022-09-28T17:32:54.395Z,3.03
2022-09-28T17:35:24.563Z,3.10
2022-09-28T17:37:55.300Z,3.53
2022-09-28T17:40:25.303Z,2.83
2022-09-28T17:42:56.213Z,3.10
2022-09-28T17:45:25.917Z,3.60
2022-09-28T17:47:54.221Z,3.83
2022-09-28T17:50:24.700Z,3.60
2022-09-28T17:52:53.754Z,3.33
2022-09-28T17:55:27.471Z,4.13
2022-09-28T17:57:56.434Z,3.67
2022-09-28T18:00:27.546Z,3.70
2022-09-28T18:02:56.270Z,3.40
2022-09-28T18:05:25.865Z,4.23
2022-09-28T18:07:54.766Z,4.50
2022-09-28T18:10:26.390Z,6.10
2022-09-28T18:12:54.683Z,7.50
2022-09-28T18:15:23.064Z,8.67
2022-09-28T18:17:51.432Z,7.00
2022-09-28T18:20:20.101Z,6.20
2022-09-28T18:22:48.555Z,5.47
2022-09-28T18:25:17.055Z,5.93
2022-09-28T18:27:46.882Z,5.50
2022-09-28T18:30:15.345Z,5.60
2022-09-28T18:32:43.778Z,5.43
2022-09-28T18:35:12.296Z,4.77
2022-09-28T18:37:41.576Z,5.30
2022-09-28T18:40:12.963Z,5.30
2022-09-28T18:42:41.710Z,5.77
2022-09-28T18:45:12.607Z,6.10
2022-09-28T18:47:41.319Z,7.27
2022-09-28T18:50:11.675Z,6.40
2022-09-28T18:52:41.062Z,4.93
2022-09-28T18:55:10.432Z,5.70
2022-09-28T18:57:41.350Z,5.83
2022-09-28T19:00:15.385Z,5.37
2022-09-28T19:02:44.022Z,5.03
2022-09-28T19:05:13.306Z,5.67
2022-09-28T19:07:41.774Z,4.80
2022-09-28T19:10:10.451Z,5.10
2022-09-28T19:12:38.907Z,8.37
2022-09-28T19:15:08.576Z,6.00
2022-09-28T19:17:40.067Z,5.47
2022-09-28T19:20:09.403Z,5.10
2022-09-28T19:22:38.015Z,5.80
2022-09-28T19:25:09.818Z,5.87
2022-09-28T19:27:38.700Z,5.50
2022-09-28T19:30:08.641Z,5.43
2022-09-28T19:32:37.053Z,5.90
2022-09-28T19:35:08.502Z,5.47
2022-09-28T19:37:39.257Z,5.70
2022-09-28T19:40:08.931Z,7.20
2022-09-28T19:42:37.608Z,6.67
2022-09-28T19:45:08.797Z,6.30
2022-09-28T19:47:37.789Z,7.60
2022-09-28T19:50:10.411Z,7.53
2022-09-28T19:52:39.034Z,7.30
2022-09-28T19:55:08.916Z,7.10
2022-09-28T19:57:37.317Z,7.50
2022-09-28T20:00:06.801Z,7.00
2022-09-28T20:02:36.007Z,7.30
2022-09-28T20:05:04.873Z,5.87
2022-09-28T20:07:36.289Z,6.80
2022-09-28T20:10:04.887Z,7.00
2022-09-28T20:12:35.103Z,6.60
2022-09-28T20:15:03.607Z,6.90
2022-09-28T20:17:32.087Z,6.30
2022-09-28T20:20:01.073Z,6.00
2022-09-28T20:22:29.467Z,6.00
2022-09-28T20:25:00.706Z,7.50
2022-09-28T20:27:29.307Z,6.10
2022-09-28T20:29:57.877Z,6.50
2022-09-28T20:32:26.196Z,9.77
2022-09-28T20:34:54.816Z,6.10
2022-09-28T20:37:26.436Z,6.20
2022-09-28T20:39:55.381Z,6.23
2022-09-28T20:42:25.416Z,6.63
2022-09-28T20:44:53.904Z,5.87
2022-09-28T20:47:22.328Z,6.20
2022-09-28T20:49:51.057Z,6.50
2022-09-28T20:52:20.010Z,7.70
2022-09-28T20:54:48.408Z,7.37
2022-09-28T20:57:20.145Z,6.17
2022-09-28T20:59:54.493Z,6.33
2022-09-28T21:02:23.696Z,7.13
2022-09-28T21:04:52.505Z,6.33
2022-09-28T21:07:21.066Z,6.93
2022-09-28T21:09:50.617Z,7.60
2022-09-28T21:12:19.233Z,7.27
2022-09-28T21:14:47.535Z,7.10
2022-09-28T21:17:17.301Z,6.77
2022-09-28T21:19:45.584Z,6.47
2022-09-28T21:22:13.850Z,6.70
2022-09-28T21:24:42.074Z,6.30
2022-09-28T21:27:10.338Z,6.27
2022-09-28T21:29:38.613Z,6.87
2022-09-28T21:32:08.275Z,5.93
2022-09-28T21:34:38.131Z,6.57
2022-09-28T21:37:06.965Z,6.20
2022-09-28T21:39:35.293Z,6.17
2022-09-28T21:42:04.160Z,6.87
2022-09-28T21:44:32.380Z,6.63
2022-09-28T21:47:00.964Z,6.27
2022-09-28T21:49:29.197Z,6.83
2022-09-28T21:51:58.895Z,6.70
2022-09-28T21:54:29.010Z,6.40
2022-09-28T21:56:57.331Z,6.10
2022-09-28T21:59:25.947Z,7.17
2022-09-28T22:01:54.357Z,6.43
2022-09-28T22:04:22.749Z,6.53
2022-09-28T22:06:51.473Z,6.40
2022-09-28T22:09:21.152Z,7.10
2022-09-28T22:11:51.212Z,6.30
2022-09-28T22:14:19.602Z,6.63
2022-09-28T22:16:47.915Z,6.83
2022-09-28T22:19:16.494Z,6.00
2022-09-28T22:21:45.210Z,6.10
2022-09-28T22:24:13.452Z,5.97
2022-09-28T22:26:43.200Z,6.03
2022-09-28T22:29:11.653Z,5.90
2022-09-28T22:31:41.627Z,6.30
2022-09-28T22:34:11.006Z,6.23
2022-09-28T22:36:39.364Z,6.50
2022-09-28T22:39:07.851Z,6.60
2022-09-28T22:41:36.191Z,7.00
2022-09-28T22:44:05.987Z,6.40
2022-09-28T22:46:35.384Z,6.53
2022-09-28T22:49:03.870Z,6.80
2022-09-28T22:51:32.304Z,6.30
2022-09-28T22:54:01.299Z,6.93
2022-09-28T22:56:30.399Z,5.83
2022-09-28T22:58:58.815Z,5.87
2022-09-28T23:01:30.038Z,6.03
2022-09-28T23:03:58.909Z,6.00
2022-09-28T23:06:29.144Z,5.70
2022-09-28T23:08:57.573Z,5.30
2022-09-28T23:11:26.102Z,6.40
2022-09-28T23:13:56.013Z,6.80
2022-09-28T23:16:26.825Z,5.60
2022-09-28T23:18:57.300Z,6.40
2022-09-28T23:21:27.148Z,6.03
2022-09-28T23:23:56.977Z,6.83
2022-09-28T23:26:27.491Z,5.50
2022-09-28T23:28:56.191Z,6.40
2022-09-28T23:31:26.143Z,5.60
2022-09-28T23:33:59.682Z,5.83
2022-09-28T23:36:28.083Z,6.70
2022-09-28T23:38:56.445Z,6.07
2022-09-28T23:41:24.659Z,6.07
2022-09-28T23:43:53.026Z,6.30
2022-09-28T23:46:21.542Z,6.67
2022-09-28T23:48:50.468Z,8.00
2022-09-28T23:51:20.110Z,6.40
2022-09-28T23:53:48.445Z,7.50
2022-09-28T23:56:17.086Z,6.63
2022-09-28T23:58:45.510Z,6.03
